sensor_id;sensor_type;location;lat;lon;timestamp;P1;durP1;ratioP1;P2;durP2;ratioP2
76593;SDS011;65482;50.240;14.302;2023-07-08T00:00:58;5.65;;;3.63;;
76593;SDS011;65482;50.240;14.302;2023-07-08T00:03:42;4.90;;;3.58;;
76593;SDS011;65482;50.240;14.302;2023-07-08T00:06:24;6.45;;;3.70;;
76593;SDS011;65482;50.240;14.302;2023-07-08T00:08:57;4.15;;;3.00;;
76593;SDS011;65482;50.240;14.302;2023-07-08T00:11:24;6.32;;;3.70;;
76593;SDS011;65482;50.240;14.302;2023-07-08T00:13:58;5.30;;;3.70;;
76593;SDS011;65482;50.240;14.302;2023-07-08T00:16:25;6.75;;;3.65;;
76593;SDS011;65482;50.240;14.302;2023-07-08T00:18:58;6.75;;;3.80;;
76593;SDS011;65482;50.240;14.302;2023-07-08T00:21:25;6.65;;;3.20;;
76593;SDS011;65482;50.240;14.302;2023-07-08T00:23:55;6.55;;;3.60;;
76593;SDS011;65482;50.240;14.302;2023-07-08T00:26:25;5.90;;;3.50;;
76593;SDS011;65482;50.240;14.302;2023-07-08T00:29:08;6.43;;;3.78;;
76593;SDS011;65482;50.240;14.302;2023-07-08T00:31:35;7.00;;;3.45;;
76593;SDS011;65482;50.240;14.302;2023-07-08T00:34:09;7.53;;;3.83;;
76593;SDS011;65482;50.240;14.302;2023-07-08T00:36:41;5.57;;;3.30;;
76593;SDS011;65482;50.240;14.302;2023-07-08T00:39:12;5.97;;;3.40;;
76593;SDS011;65482;50.240;14.302;2023-07-08T00:41:42;9.80;;;3.63;;
76593;SDS011;65482;50.240;14.302;2023-07-08T00:44:12;5.68;;;3.67;;
76593;SDS011;65482;50.240;14.302;2023-07-08T00:46:57;9.68;;;3.55;;
76593;SDS011;65482;50.240;14.302;2023-07-08T00:49:52;5.32;;;3.60;;
76593;SDS011;65482;50.240;14.302;2023-07-08T00:52:27;5.68;;;3.85;;
76593;SDS011;65482;50.240;14.302;2023-07-08T00:54:57;4.93;;;3.53;;
76593;SDS011;65482;50.240;14.302;2023-07-08T00:57:30;8.43;;;3.85;;
76593;SDS011;65482;50.240;14.302;2023-07-08T01:00:10;6.63;;;3.60;;
76593;SDS011;65482;50.240;14.302;2023-07-08T01:02:42;5.55;;;3.42;;
76593;SDS011;65482;50.240;14.302;2023-07-08T01:05:20;6.43;;;3.60;;
76593;SDS011;65482;50.240;14.302;2023-07-08T01:07:54;6.07;;;3.67;;
76593;SDS011;65482;50.240;14.302;2023-07-08T01:10:32;6.80;;;3.85;;
76593;SDS011;65482;50.240;14.302;2023-07-08T01:13:06;5.50;;;3.67;;
76593;SDS011;65482;50.240;14.302;2023-07-08T01:15:41;6.30;;;3.80;;
76593;SDS011;65482;50.240;14.302;2023-07-08T01:18:18;6.22;;;3.60;;
76593;SDS011;65482;50.240;14.302;2023-07-08T01:20:48;7.05;;;3.88;;
76593;SDS011;65482;50.240;14.302;2023-07-08T01:23:16;7.28;;;3.55;;
76593;SDS011;65482;50.240;14.302;2023-07-08T01:25:47;5.30;;;3.63;;
76593;SDS011;65482;50.240;14.302;2023-07-08T01:28:19;7.03;;;4.30;;
76593;SDS011;65482;50.240;14.302;2023-07-08T01:30:49;5.68;;;4.07;;
76593;SDS011;65482;50.240;14.302;2023-07-08T01:33:19;7.25;;;3.53;;
76593;SDS011;65482;50.240;14.302;2023-07-08T01:35:51;5.93;;;3.45;;
76593;SDS011;65482;50.240;14.302;2023-07-08T01:38:21;7.88;;;4.20;;
76593;SDS011;65482;50.240;14.302;2023-07-08T01:40:57;5.05;;;3.42;;
76593;SDS011;65482;50.240;14.302;2023-07-08T01:43:25;6.25;;;3.90;;
76593;SDS011;65482;50.240;14.302;2023-07-08T01:45:53;6.97;;;3.70;;
76593;SDS011;65482;50.240;14.302;2023-07-08T01:48:23;7.82;;;4.10;;
76593;SDS011;65482;50.240;14.302;2023-07-08T01:53:29;6.05;;;3.55;;
76593;SDS011;65482;50.240;14.302;2023-07-08T01:56:00;7.97;;;4.00;;
76593;SDS011;65482;50.240;14.302;2023-07-08T01:58:30;7.78;;;3.85;;
76593;SDS011;65482;50.240;14.302;2023-07-08T02:01:00;7.78;;;4.00;;
76593;SDS011;65482;50.240;14.302;2023-07-08T02:03:27;6.38;;;4.28;;
76593;SDS011;65482;50.240;14.302;2023-07-08T02:05:59;7.88;;;4.18;;
76593;SDS011;65482;50.240;14.302;2023-07-08T02:08:25;9.13;;;4.20;;
76593;SDS011;65482;50.240;14.302;2023-07-08T02:10:57;7.15;;;3.97;;
76593;SDS011;65482;50.240;14.302;2023-07-08T02:13:28;5.65;;;3.67;;
76593;SDS011;65482;50.240;14.302;2023-07-08T02:16:00;4.95;;;3.50;;
76593;SDS011;65482;50.240;14.302;2023-07-08T02:18:28;6.15;;;3.90;;
76593;SDS011;65482;50.240;14.302;2023-07-08T02:21:02;7.43;;;3.70;;
76593;SDS011;65482;50.240;14.302;2023-07-08T02:23:34;4.75;;;3.78;;
76593;SDS011;65482;50.240;14.302;2023-07-08T02:26:07;6.63;;;4.00;;
76593;SDS011;65482;50.240;14.302;2023-07-08T02:28:35;5.60;;;3.65;;
76593;SDS011;65482;50.240;14.302;2023-07-08T02:31:05;6.60;;;4.22;;
76593;SDS011;65482;50.240;14.302;2023-07-08T02:33:33;4.45;;;3.50;;
76593;SDS011;65482;50.240;14.302;2023-07-08T02:36:02;6.90;;;3.75;;
76593;SDS011;65482;50.240;14.302;2023-07-08T02:38:31;6.15;;;3.75;;
76593;SDS011;65482;50.240;14.302;2023-07-08T02:41:09;5.78;;;3.85;;
76593;SDS011;65482;50.240;14.302;2023-07-08T02:43:39;5.88;;;4.00;;
76593;SDS011;65482;50.240;14.302;2023-07-08T02:46:07;7.22;;;4.20;;
76593;SDS011;65482;50.240;14.302;2023-07-08T02:48:34;6.47;;;4.30;;
76593;SDS011;65482;50.240;14.302;2023-07-08T02:51:05;6.00;;;3.88;;
76593;SDS011;65482;50.240;14.302;2023-07-08T02:53:35;5.22;;;3.83;;
76593;SDS011;65482;50.240;14.302;2023-07-08T02:56:06;6.78;;;4.05;;
76593;SDS011;65482;50.240;14.302;2023-07-08T02:58:33;4.50;;;3.70;;
76593;SDS011;65482;50.240;14.302;2023-07-08T03:01:02;6.90;;;3.80;;
76593;SDS011;65482;50.240;14.302;2023-07-08T03:03:31;6.95;;;3.78;;
76593;SDS011;65482;50.240;14.302;2023-07-08T03:05:58;5.53;;;3.97;;
76593;SDS011;65482;50.240;14.302;2023-07-08T03:08:31;7.38;;;3.53;;
76593;SDS011;65482;50.240;14.302;2023-07-08T03:11:01;5.43;;;3.78;;
76593;SDS011;65482;50.240;14.302;2023-07-08T03:13:30;5.53;;;3.90;;
76593;SDS011;65482;50.240;14.302;2023-07-08T03:16:02;8.80;;;4.20;;
76593;SDS011;65482;50.240;14.302;2023-07-08T03:18:39;9.00;;;4.35;;
76593;SDS011;65482;50.240;14.302;2023-07-08T03:21:14;6.82;;;4.15;;
76593;SDS011;65482;50.240;14.302;2023-07-08T03:23:42;6.88;;;3.97;;
76593;SDS011;65482;50.240;14.302;2023-07-08T03:26:17;5.32;;;3.80;;
76593;SDS011;65482;50.240;14.302;2023-07-08T03:28:47;6.32;;;4.07;;
76593;SDS011;65482;50.240;14.302;2023-07-08T03:31:24;6.30;;;3.80;;
76593;SDS011;65482;50.240;14.302;2023-07-08T03:33:50;5.78;;;3.80;;
76593;SDS011;65482;50.240;14.302;2023-07-08T03:36:17;5.40;;;4.20;;
76593;SDS011;65482;50.240;14.302;2023-07-08T03:38:55;6.15;;;4.13;;
76593;SDS011;65482;50.240;14.302;2023-07-08T03:41:25;7.18;;;4.95;;
76593;SDS011;65482;50.240;14.302;2023-07-08T03:43:52;7.38;;;4.22;;
76593;SDS011;65482;50.240;14.302;2023-07-08T03:46:19;6.32;;;4.10;;
76593;SDS011;65482;50.240;14.302;2023-07-08T03:48:53;5.88;;;3.83;;
76593;SDS011;65482;50.240;14.302;2023-07-08T03:51:24;6.15;;;3.70;;
76593;SDS011;65482;50.240;14.302;2023-07-08T03:54:01;6.20;;;3.55;;
76593;SDS011;65482;50.240;14.302;2023-07-08T03:56:35;4.25;;;3.50;;
76593;SDS011;65482;50.240;14.302;2023-07-08T03:59:04;5.97;;;3.28;;
76593;SDS011;65482;50.240;14.302;2023-07-08T04:01:35;6.05;;;3.78;;
76593;SDS011;65482;50.240;14.302;2023-07-08T04:04:11;4.30;;;3.60;;
76593;SDS011;65482;50.240;14.302;2023-07-08T04:06:41;4.72;;;3.47;;
76593;SDS011;65482;50.240;14.302;2023-07-08T04:09:07;6.10;;;3.60;;
76593;SDS011;65482;50.240;14.302;2023-07-08T04:11:44;5.03;;;3.42;;
76593;SDS011;65482;50.240;14.302;2023-07-08T04:14:11;6.15;;;4.00;;
76593;SDS011;65482;50.240;14.302;2023-07-08T04:16:42;8.55;;;3.95;;
76593;SDS011;65482;50.240;14.302;2023-07-08T04:19:14;6.20;;;3.70;;
76593;SDS011;65482;50.240;14.302;2023-07-08T04:21:46;5.20;;;3.75;;
76593;SDS011;65482;50.240;14.302;2023-07-08T04:24:15;5.95;;;4.07;;
76593;SDS011;65482;50.240;14.302;2023-07-08T04:26:46;7.13;;;3.88;;
76593;SDS011;65482;50.240;14.302;2023-07-08T04:29:27;10.18;;;3.85;;
76593;SDS011;65482;50.240;14.302;2023-07-08T04:31:57;5.38;;;3.58;;
76593;SDS011;65482;50.240;14.302;2023-07-08T04:37:11;5.40;;;3.92;;
76593;SDS011;65482;50.240;14.302;2023-07-08T04:39:41;5.78;;;3.90;;
76593;SDS011;65482;50.240;14.302;2023-07-08T04:42:16;7.68;;;3.88;;
76593;SDS011;65482;50.240;14.302;2023-07-08T04:44:43;6.88;;;4.10;;
76593;SDS011;65482;50.240;14.302;2023-07-08T04:47:29;6.75;;;3.92;;
76593;SDS011;65482;50.240;14.302;2023-07-08T04:50:00;6.45;;;4.50;;
76593;SDS011;65482;50.240;14.302;2023-07-08T04:52:27;8.60;;;4.40;;
76593;SDS011;65482;50.240;14.302;2023-07-08T04:55:00;6.88;;;4.60;;
76593;SDS011;65482;50.240;14.302;2023-07-08T04:57:27;8.20;;;4.63;;
76593;SDS011;65482;50.240;14.302;2023-07-08T04:59:56;5.43;;;4.07;;
76593;SDS011;65482;50.240;14.302;2023-07-08T05:02:26;6.00;;;4.10;;
76593;SDS011;65482;50.240;14.302;2023-07-08T05:04:55;6.30;;;4.07;;
76593;SDS011;65482;50.240;14.302;2023-07-08T05:07:22;8.88;;;4.43;;
76593;SDS011;65482;50.240;14.302;2023-07-08T05:09:50;5.97;;;4.22;;
76593;SDS011;65482;50.240;14.302;2023-07-08T05:12:19;7.07;;;4.38;;
76593;SDS011;65482;50.240;14.302;2023-07-08T05:14:51;9.40;;;4.82;;
76593;SDS011;65482;50.240;14.302;2023-07-08T05:17:21;7.13;;;4.10;;
76593;SDS011;65482;50.240;14.302;2023-07-08T05:19:53;6.75;;;4.40;;
76593;SDS011;65482;50.240;14.302;2023-07-08T05:22:23;5.60;;;4.40;;
76593;SDS011;65482;50.240;14.302;2023-07-08T05:24:55;7.68;;;4.57;;
76593;SDS011;65482;50.240;14.302;2023-07-08T05:27:23;8.00;;;4.25;;
76593;SDS011;65482;50.240;14.302;2023-07-08T05:30:08;5.50;;;4.55;;
76593;SDS011;65482;50.240;14.302;2023-07-08T05:33:15;9.85;;;4.40;;
76593;SDS011;65482;50.240;14.302;2023-07-08T05:35:48;5.88;;;4.40;;
76593;SDS011;65482;50.240;14.302;2023-07-08T05:38:28;10.32;;;4.93;;
76593;SDS011;65482;50.240;14.302;2023-07-08T05:40:56;7.72;;;5.03;;
76593;SDS011;65482;50.240;14.302;2023-07-08T05:43:33;5.43;;;4.40;;
76593;SDS011;65482;50.240;14.302;2023-07-08T05:46:02;5.50;;;4.55;;
76593;SDS011;65482;50.240;14.302;2023-07-08T05:48:32;5.60;;;4.38;;
76593;SDS011;65482;50.240;14.302;2023-07-08T05:51:07;6.22;;;4.32;;
76593;SDS011;65482;50.240;14.302;2023-07-08T05:53:36;7.50;;;4.43;;
76593;SDS011;65482;50.240;14.302;2023-07-08T05:56:04;9.00;;;4.07;;
76593;SDS011;65482;50.240;14.302;2023-07-08T05:58:32;5.18;;;3.95;;
76593;SDS011;65482;50.240;14.302;2023-07-08T06:01:03;6.88;;;4.45;;
76593;SDS011;65482;50.240;14.302;2023-07-08T06:07:06;6.85;;;4.20;;
76593;SDS011;65482;50.240;14.302;2023-07-08T06:09:37;6.68;;;4.20;;
76593;SDS011;65482;50.240;14.302;2023-07-08T06:12:04;6.30;;;4.03;;
76593;SDS011;65482;50.240;14.302;2023-07-08T06:14:34;9.27;;;4.10;;
76593;SDS011;65482;50.240;14.302;2023-07-08T06:17:04;5.38;;;4.18;;
76593;SDS011;65482;50.240;14.302;2023-07-08T06:19:30;4.95;;;3.90;;
76593;SDS011;65482;50.240;14.302;2023-07-08T06:21:59;4.90;;;3.65;;
76593;SDS011;65482;50.240;14.302;2023-07-08T06:24:26;5.68;;;3.60;;
76593;SDS011;65482;50.240;14.302;2023-07-08T06:26:57;5.13;;;3.65;;
76593;SDS011;65482;50.240;14.302;2023-07-08T06:29:24;6.32;;;3.65;;
76593;SDS011;65482;50.240;14.302;2023-07-08T06:39:38;5.07;;;3.67;;
76593;SDS011;65482;50.240;14.302;2023-07-08T06:42:05;8.07;;;4.15;;
76593;SDS011;65482;50.240;14.302;2023-07-08T06:44:33;4.00;;;3.30;;
76593;SDS011;65482;50.240;14.302;2023-07-08T06:47:12;6.60;;;4.00;;
76593;SDS011;65482;50.240;14.302;2023-07-08T06:49:40;6.60;;;4.00;;
76593;SDS011;65482;50.240;14.302;2023-07-08T06:52:12;5.03;;;3.80;;
76593;SDS011;65482;50.240;14.302;2023-07-08T06:54:40;7.53;;;3.85;;
76593;SDS011;65482;50.240;14.302;2023-07-08T06:57:13;5.35;;;3.90;;
76593;SDS011;65482;50.240;14.302;2023-07-08T06:59:42;7.53;;;3.75;;
76593;SDS011;65482;50.240;14.302;2023-07-08T07:08:13;6.38;;;4.07;;
76593;SDS011;65482;50.240;14.302;2023-07-08T07:10:42;6.55;;;3.72;;
76593;SDS011;65482;50.240;14.302;2023-07-08T07:13:13;5.53;;;4.18;;
76593;SDS011;65482;50.240;14.302;2023-07-08T07:15:52;4.55;;;3.60;;
76593;SDS011;65482;50.240;14.302;2023-07-08T07:18:22;4.65;;;3.53;;
76593;SDS011;65482;50.240;14.302;2023-07-08T07:20:53;6.35;;;3.58;;
76593;SDS011;65482;50.240;14.302;2023-07-08T07:23:20;8.48;;;3.85;;
76593;SDS011;65482;50.240;14.302;2023-07-08T07:26:02;5.20;;;3.55;;
76593;SDS011;65482;50.240;14.302;2023-07-08T07:28:38;8.07;;;3.58;;
76593;SDS011;65482;50.240;14.302;2023-07-08T07:31:11;5.00;;;3.35;;
76593;SDS011;65482;50.240;14.302;2023-07-08T07:33:50;9.77;;;3.10;;
76593;SDS011;65482;50.240;14.302;2023-07-08T08:02:10;3.80;;;2.72;;
76593;SDS011;65482;50.240;14.302;2023-07-08T08:17:58;3.72;;;2.53;;
76593;SDS011;65482;50.240;14.302;2023-07-08T08:20:50;3.33;;;2.50;;
76593;SDS011;65482;50.240;14.302;2023-07-08T08:23:41;3.00;;;2.50;;
76593;SDS011;65482;50.240;14.302;2023-07-08T08:26:52;6.15;;;2.67;;
76593;SDS011;65482;50.240;14.302;2023-07-08T08:29:47;3.15;;;2.40;;
76593;SDS011;65482;50.240;14.302;2023-07-08T08:35:19;4.75;;;2.55;;
76593;SDS011;65482;50.240;14.302;2023-07-08T08:44:47;4.38;;;2.20;;
76593;SDS011;65482;50.240;14.302;2023-07-08T08:47:41;6.20;;;2.50;;
76593;SDS011;65482;50.240;14.302;2023-07-08T08:50:58;5.15;;;2.50;;
76593;SDS011;65482;50.240;14.302;2023-07-08T08:53:42;2.83;;;2.30;;
76593;SDS011;65482;50.240;14.302;2023-07-08T09:07:08;4.20;;;2.20;;
76593;SDS011;65482;50.240;14.302;2023-07-08T09:12:42;2.80;;;2.47;;
76593;SDS011;65482;50.240;14.302;2023-07-08T09:28:46;4.72;;;2.30;;
76593;SDS011;65482;50.240;14.302;2023-07-08T09:31:36;3.45;;;2.38;;
76593;SDS011;65482;50.240;14.302;2023-07-08T09:34:45;5.13;;;2.75;;
76593;SDS011;65482;50.240;14.302;2023-07-08T09:37:39;4.53;;;2.55;;
76593;SDS011;65482;50.240;14.302;2023-07-08T09:44:00;4.03;;;2.50;;
76593;SDS011;65482;50.240;14.302;2023-07-08T09:47:08;3.72;;;2.22;;
76593;SDS011;65482;50.240;14.302;2023-07-08T09:50:27;4.05;;;2.40;;
76593;SDS011;65482;50.240;14.302;2023-07-08T09:53:28;3.50;;;2.50;;
76593;SDS011;65482;50.240;14.302;2023-07-08T09:56:02;5.22;;;2.42;;
76593;SDS011;65482;50.240;14.302;2023-07-08T10:08:23;3.47;;;2.55;;
76593;SDS011;65482;50.240;14.302;2023-07-08T10:14:31;3.80;;;2.67;;
76593;SDS011;65482;50.240;14.302;2023-07-08T10:17:16;3.88;;;2.42;;
76593;SDS011;65482;50.240;14.302;2023-07-08T10:40:46;5.53;;;2.28;;
76593;SDS011;65482;50.240;14.302;2023-07-08T10:43:52;6.72;;;2.47;;
76593;SDS011;65482;50.240;14.302;2023-07-08T10:53:18;3.15;;;2.55;;
76593;SDS011;65482;50.240;14.302;2023-07-08T11:19:32;4.88;;;2.58;;
76593;SDS011;65482;50.240;14.302;2023-07-08T11:22:12;6.00;;;2.67;;
76593;SDS011;65482;50.240;14.302;2023-07-08T11:24:46;3.53;;;2.47;;
76593;SDS011;65482;50.240;14.302;2023-07-08T11:30:49;3.65;;;2.50;;
76593;SDS011;65482;50.240;14.302;2023-07-08T11:33:24;5.60;;;2.05;;
76593;SDS011;65482;50.240;14.302;2023-07-08T11:38:28;3.78;;;2.60;;
76593;SDS011;65482;50.240;14.302;2023-07-08T11:41:10;4.68;;;2.42;;
76593;SDS011;65482;50.240;14.302;2023-07-08T11:43:53;4.60;;;2.58;;
76593;SDS011;65482;50.240;14.302;2023-07-08T11:46:36;4.88;;;2.50;;
76593;SDS011;65482;50.240;14.302;2023-07-08T11:49:38;3.55;;;2.35;;
76593;SDS011;65482;50.240;14.302;2023-07-08T11:52:14;4.07;;;2.42;;
76593;SDS011;65482;50.240;14.302;2023-07-08T11:54:48;4.03;;;2.33;;
76593;SDS011;65482;50.240;14.302;2023-07-08T11:57:43;3.95;;;2.60;;
76593;SDS011;65482;50.240;14.302;2023-07-08T12:00:32;3.53;;;2.30;;
76593;SDS011;65482;50.240;14.302;2023-07-08T12:03:23;4.40;;;2.45;;
76593;SDS011;65482;50.240;14.302;2023-07-08T12:18:28;3.67;;;2.42;;
76593;SDS011;65482;50.240;14.302;2023-07-08T12:21:05;4.25;;;2.38;;
76593;SDS011;65482;50.240;14.302;2023-07-08T12:23:49;6.85;;;2.63;;
76593;SDS011;65482;50.240;14.302;2023-07-08T12:26:21;4.22;;;2.75;;
76593;SDS011;65482;50.240;14.302;2023-07-08T12:29:04;3.80;;;2.42;;
76593;SDS011;65482;50.240;14.302;2023-07-08T12:31:41;3.85;;;2.40;;
76593;SDS011;65482;50.240;14.302;2023-07-08T12:34:23;2.88;;;2.45;;
76593;SDS011;65482;50.240;14.302;2023-07-08T12:37:00;4.28;;;2.55;;
76593;SDS011;65482;50.240;14.302;2023-07-08T12:39:44;2.55;;;2.08;;
76593;SDS011;65482;50.240;14.302;2023-07-08T12:42:36;4.00;;;2.38;;
76593;SDS011;65482;50.240;14.302;2023-07-08T12:45:14;4.97;;;2.45;;
76593;SDS011;65482;50.240;14.302;2023-07-08T12:48:01;2.60;;;2.22;;
76593;SDS011;65482;50.240;14.302;2023-07-08T12:50:32;3.85;;;2.60;;
76593;SDS011;65482;50.240;14.302;2023-07-08T12:53:04;3.95;;;2.40;;
76593;SDS011;65482;50.240;14.302;2023-07-08T12:55:49;4.05;;;2.10;;
76593;SDS011;65482;50.240;14.302;2023-07-08T12:58:27;4.03;;;2.30;;
76593;SDS011;65482;50.240;14.302;2023-07-08T13:00:59;4.20;;;2.45;;
76593;SDS011;65482;50.240;14.302;2023-07-08T13:03:45;3.83;;;2.15;;
76593;SDS011;65482;50.240;14.302;2023-07-08T13:06:27;5.05;;;2.20;;
76593;SDS011;65482;50.240;14.302;2023-07-08T13:09:00;2.55;;;2.35;;
76593;SDS011;65482;50.240;14.302;2023-07-08T13:11:47;3.75;;;2.30;;
76593;SDS011;65482;50.240;14.302;2023-07-08T13:14:48;2.45;;;2.10;;
76593;SDS011;65482;50.240;14.302;2023-07-08T13:17:21;3.45;;;2.42;;
76593;SDS011;65482;50.240;14.302;2023-07-08T13:26:44;5.55;;;2.28;;
76593;SDS011;65482;50.240;14.302;2023-07-08T13:29:21;5.35;;;2.30;;
76593;SDS011;65482;50.240;14.302;2023-07-08T13:35:27;3.90;;;2.33;;
76593;SDS011;65482;50.240;14.302;2023-07-08T13:38:15;4.88;;;2.40;;
76593;SDS011;65482;50.240;14.302;2023-07-08T13:40:55;4.60;;;2.72;;
76593;SDS011;65482;50.240;14.302;2023-07-08T13:43:27;5.07;;;2.40;;
76593;SDS011;65482;50.240;14.302;2023-07-08T13:52:15;3.60;;;2.58;;
76593;SDS011;65482;50.240;14.302;2023-07-08T13:55:00;4.10;;;2.22;;
76593;SDS011;65482;50.240;14.302;2023-07-08T14:19:33;3.25;;;2.40;;
76593;SDS011;65482;50.240;14.302;2023-07-08T14:22:25;2.95;;;2.20;;
76593;SDS011;65482;50.240;14.302;2023-07-08T14:25:08;2.97;;;2.22;;
76593;SDS011;65482;50.240;14.302;2023-07-08T14:27:41;3.15;;;2.40;;
76593;SDS011;65482;50.240;14.302;2023-07-08T14:30:19;3.55;;;2.47;;
76593;SDS011;65482;50.240;14.302;2023-07-08T14:38:53;3.67;;;2.42;;
76593;SDS011;65482;50.240;14.302;2023-07-08T14:44:48;3.80;;;2.15;;
76593;SDS011;65482;50.240;14.302;2023-07-08T14:47:22;4.15;;;2.15;;
76593;SDS011;65482;50.240;14.302;2023-07-08T14:52:28;3.80;;;2.00;;
76593;SDS011;65482;50.240;14.302;2023-07-08T14:54:56;2.92;;;2.13;;
76593;SDS011;65482;50.240;14.302;2023-07-08T15:07:23;2.80;;;2.50;;
76593;SDS011;65482;50.240;14.302;2023-07-08T15:09:54;4.15;;;2.30;;
76593;SDS011;65482;50.240;14.302;2023-07-08T15:12:31;2.88;;;2.40;;
76593;SDS011;65482;50.240;14.302;2023-07-08T15:15:14;3.25;;;2.30;;
76593;SDS011;65482;50.240;14.302;2023-07-08T15:17:45;3.38;;;2.38;;
76593;SDS011;65482;50.240;14.302;2023-07-08T15:20:28;5.20;;;2.20;;
76593;SDS011;65482;50.240;14.302;2023-07-08T15:23:03;4.00;;;2.17;;
76593;SDS011;65482;50.240;14.302;2023-07-08T15:25:32;3.85;;;2.67;;
76593;SDS011;65482;50.240;14.302;2023-07-08T15:28:04;3.67;;;2.20;;
76593;SDS011;65482;50.240;14.302;2023-07-08T15:30:37;2.10;;;1.90;;
76593;SDS011;65482;50.240;14.302;2023-07-08T15:33:15;4.88;;;2.83;;
76593;SDS011;65482;50.240;14.302;2023-07-08T15:35:44;2.67;;;2.35;;
76593;SDS011;65482;50.240;14.302;2023-07-08T15:38:18;2.70;;;2.05;;
76593;SDS011;65482;50.240;14.302;2023-07-08T15:40:53;3.85;;;2.30;;
76593;SDS011;65482;50.240;14.302;2023-07-08T15:43:28;3.95;;;2.33;;
76593;SDS011;65482;50.240;14.302;2023-07-08T15:45:56;7.38;;;2.50;;
76593;SDS011;65482;50.240;14.302;2023-07-08T15:48:50;2.65;;;2.10;;
76593;SDS011;65482;50.240;14.302;2023-07-08T15:51:42;2.85;;;2.55;;
76593;SDS011;65482;50.240;14.302;2023-07-08T15:58:00;4.15;;;2.53;;
76593;SDS011;65482;50.240;14.302;2023-07-08T16:00:39;3.40;;;2.60;;
76593;SDS011;65482;50.240;14.302;2023-07-08T16:03:22;4.35;;;2.08;;
76593;SDS011;65482;50.240;14.302;2023-07-08T16:06:00;2.83;;;2.50;;
76593;SDS011;65482;50.240;14.302;2023-07-08T16:08:33;3.92;;;2.53;;
76593;SDS011;65482;50.240;14.302;2023-07-08T16:14:18;4.18;;;2.40;;
76593;SDS011;65482;50.240;14.302;2023-07-08T16:39:23;4.00;;;2.42;;
76593;SDS011;65482;50.240;14.302;2023-07-08T16:41:53;5.35;;;2.40;;
76593;SDS011;65482;50.240;14.302;2023-07-08T16:44:24;5.03;;;2.40;;
76593;SDS011;65482;50.240;14.302;2023-07-08T17:01:52;4.95;;;2.40;;
76593;SDS011;65482;50.240;14.302;2023-07-08T17:04:23;5.07;;;2.40;;
76593;SDS011;65482;50.240;14.302;2023-07-08T17:06:59;2.95;;;2.40;;
76593;SDS011;65482;50.240;14.302;2023-07-08T17:22:36;3.60;;;2.78;;
76593;SDS011;65482;50.240;14.302;2023-07-08T17:25:04;5.93;;;2.20;;
76593;SDS011;65482;50.240;14.302;2023-07-08T17:38:00;5.82;;;2.55;;
76593;SDS011;65482;50.240;14.302;2023-07-08T17:43:15;4.45;;;2.45;;
76593;SDS011;65482;50.240;14.302;2023-07-08T17:46:07;4.05;;;2.50;;
76593;SDS011;65482;50.240;14.302;2023-07-08T17:56:45;4.35;;;2.40;;
76593;SDS011;65482;50.240;14.302;2023-07-08T17:59:15;2.42;;;2.22;;
76593;SDS011;65482;50.240;14.302;2023-07-08T18:01:59;3.80;;;2.30;;
76593;SDS011;65482;50.240;14.302;2023-07-08T18:04:45;3.78;;;3.03;;
76593;SDS011;65482;50.240;14.302;2023-07-08T18:27:43;4.03;;;2.97;;
76593;SDS011;65482;50.240;14.302;2023-07-08T18:30:25;3.85;;;2.95;;
76593;SDS011;65482;50.240;14.302;2023-07-08T18:32:58;4.25;;;2.72;;
76593;SDS011;65482;50.240;14.302;2023-07-08T18:59:12;23.50;;;15.50;;
76593;SDS011;65482;50.240;14.302;2023-07-08T19:01:53;25.10;;;16.23;;
76593;SDS011;65482;50.240;14.302;2023-07-08T19:04:43;26.38;;;18.20;;
76593;SDS011;65482;50.240;14.302;2023-07-08T19:07:38;16.30;;;10.27;;
76593;SDS011;65482;50.240;14.302;2023-07-08T19:19:20;10.25;;;5.18;;
76593;SDS011;65482;50.240;14.302;2023-07-08T19:22:07;9.48;;;5.30;;
76593;SDS011;65482;50.240;14.302;2023-07-08T19:24:49;9.98;;;5.97;;
76593;SDS011;65482;50.240;14.302;2023-07-08T19:27:25;10.20;;;5.57;;
76593;SDS011;65482;50.240;14.302;2023-07-08T19:29:53;9.90;;;5.28;;
76593;SDS011;65482;50.240;14.302;2023-07-08T19:36:00;7.03;;;4.18;;
76593;SDS011;65482;50.240;14.302;2023-07-08T19:38:28;6.97;;;4.00;;
76593;SDS011;65482;50.240;14.302;2023-07-08T19:40:57;8.45;;;4.53;;
76593;SDS011;65482;50.240;14.302;2023-07-08T19:43:33;5.10;;;3.85;;
76593;SDS011;65482;50.240;14.302;2023-07-08T19:46:04;7.85;;;4.25;;
76593;SDS011;65482;50.240;14.302;2023-07-08T19:48:53;7.28;;;4.13;;
76593;SDS011;65482;50.240;14.302;2023-07-08T19:54:58;9.98;;;5.22;;
76593;SDS011;65482;50.240;14.302;2023-07-08T19:57:25;8.07;;;4.68;;
76593;SDS011;65482;50.240;14.302;2023-07-08T19:59:52;7.85;;;4.30;;
76593;SDS011;65482;50.240;14.302;2023-07-08T20:02:31;6.82;;;4.40;;
76593;SDS011;65482;50.240;14.302;2023-07-08T20:05:00;6.72;;;4.50;;
76593;SDS011;65482;50.240;14.302;2023-07-08T20:07:37;9.45;;;5.07;;
76593;SDS011;65482;50.240;14.302;2023-07-08T20:10:12;8.40;;;5.05;;
76593;SDS011;65482;50.240;14.302;2023-07-08T20:12:52;7.70;;;4.97;;
76593;SDS011;65482;50.240;14.302;2023-07-08T20:15:28;7.38;;;4.28;;
76593;SDS011;65482;50.240;14.302;2023-07-08T20:17:59;6.97;;;4.75;;
76593;SDS011;65482;50.240;14.302;2023-07-08T20:20:30;6.80;;;4.90;;
76593;SDS011;65482;50.240;14.302;2023-07-08T20:22:59;9.38;;;5.78;;
76593;SDS011;65482;50.240;14.302;2023-07-08T20:25:35;11.50;;;6.05;;
76593;SDS011;65482;50.240;14.302;2023-07-08T20:28:07;8.38;;;5.57;;
76593;SDS011;65482;50.240;14.302;2023-07-08T20:30:37;8.02;;;4.47;;
76593;SDS011;65482;50.240;14.302;2023-07-08T20:33:23;6.10;;;4.63;;
76593;SDS011;65482;50.240;14.302;2023-07-08T20:36:01;6.25;;;4.18;;
76593;SDS011;65482;50.240;14.302;2023-07-08T20:38:31;6.47;;;4.55;;
76593;SDS011;65482;50.240;14.302;2023-07-08T20:40:58;7.82;;;4.65;;
76593;SDS011;65482;50.240;14.302;2023-07-08T20:43:28;6.82;;;4.50;;
76593;SDS011;65482;50.240;14.302;2023-07-08T20:45:59;8.00;;;4.82;;
76593;SDS011;65482;50.240;14.302;2023-07-08T20:48:30;5.93;;;4.30;;
76593;SDS011;65482;50.240;14.302;2023-07-08T20:51:10;10.85;;;4.72;;
76593;SDS011;65482;50.240;14.302;2023-07-08T20:53:42;8.88;;;4.72;;
76593;SDS011;65482;50.240;14.302;2023-07-08T20:56:30;11.98;;;5.00;;
76593;SDS011;65482;50.240;14.302;2023-07-08T20:59:10;7.15;;;4.72;;
76593;SDS011;65482;50.240;14.302;2023-07-08T21:01:48;9.02;;;5.15;;
76593;SDS011;65482;50.240;14.302;2023-07-08T21:04:22;8.80;;;5.70;;
76593;SDS011;65482;50.240;14.302;2023-07-08T21:06:51;11.75;;;6.20;;
76593;SDS011;65482;50.240;14.302;2023-07-08T21:09:25;10.90;;;5.97;;
76593;SDS011;65482;50.240;14.302;2023-07-08T21:12:01;8.70;;;5.75;;
76593;SDS011;65482;50.240;14.302;2023-07-08T21:14:32;9.80;;;6.20;;
76593;SDS011;65482;50.240;14.302;2023-07-08T21:17:03;11.20;;;5.32;;
76593;SDS011;65482;50.240;14.302;2023-07-08T21:19:42;10.70;;;6.00;;
76593;SDS011;65482;50.240;14.302;2023-07-08T21:22:14;9.07;;;5.57;;
76593;SDS011;65482;50.240;14.302;2023-07-08T21:24:45;11.88;;;6.25;;
76593;SDS011;65482;50.240;14.302;2023-07-08T21:27:19;11.95;;;5.50;;
76593;SDS011;65482;50.240;14.302;2023-07-08T21:30:01;7.35;;;5.40;;
76593;SDS011;65482;50.240;14.302;2023-07-08T21:32:38;8.48;;;5.72;;
76593;SDS011;65482;50.240;14.302;2023-07-08T21:35:07;8.25;;;5.43;;
76593;SDS011;65482;50.240;14.302;2023-07-08T21:37:36;8.13;;;5.60;;
76593;SDS011;65482;50.240;14.302;2023-07-08T21:40:18;8.45;;;5.03;;
76593;SDS011;65482;50.240;14.302;2023-07-08T21:42:55;10.43;;;5.78;;
76593;SDS011;65482;50.240;14.302;2023-07-08T21:45:31;8.20;;;5.90;;